Time;durP1;ratioP1;P1;durP2;ratioP2;P2;SDS_P1;SDS_P2;PMS_P1;PMS_P2;Temp;Humidity;BMP_temperature;BMP_pressure;BME280_temperature;BME280_humidity;BME280_pressure;Samples;Min_cycle;Max_cycle;Signal;HPM_P1;HPM_P2
2021/12/17 00:04:36;;;;;;;51.05;31.98;;;;;;;;;;5057279;28;20157;-80
2021/12/17 00:07:09;;;;;;;52.28;32.60;;;;;;;;;;5039790;28;20039;-81
2021/12/17 00:09:35;;;;;;;98.78;54.80;;;;;;;;;;5057589;28;20451;-81
2021/12/17 00:12:00;;;;;;;121.65;64.88;;;;;;;;;;5039135;28;20028;-79
2021/12/17 00:14:28;;;;;;;74.40;40.35;;;;;;;;;;5039444;28;20029;-81
2021/12/17 00:16:55;;;;;;;59.63;36.08;;;;;;;;;;5057642;28;20020;-80
2021/12/17 00:49:04;;;;;;;68.25;38.00;;;;;;;;;;5057068;28;20039;-80
2021/12/17 00:54:23;;;;;;;70.80;40.30;;;;;;;;;;5055463;28;20089;-80
2021/12/17 00:56:50;;;;;;;76.95;45.30;;;;;;;;;;5057200;28;20099;-80
2021/12/17 00:59:16;;;;;;;53.70;31.45;;;;;;;;;;5038387;28;20052;-79
2021/12/17 01:01:43;;;;;;;43.30;26.52;;;;;;;;;;5038868;28;20131;-80
2021/12/17 01:04:08;;;;;;;62.90;35.28;;;;;;;;;;5056492;28;20059;-80
2021/12/17 01:06:34;;;;;;;88.53;47.95;;;;;;;;;;5056506;28;20067;-81
2021/12/17 01:08:59;;;;;;;67.57;38.72;;;;;;;;;;5038731;28;20024;-81
2021/12/17 01:11:25;;;;;;;36.63;22.77;;;;;;;;;;5056531;28;20020;-81
2021/12/17 01:13:50;;;;;;;34.13;21.40;;;;;;;;;;5056347;28;20455;-82
2021/12/17 01:16:16;;;;;;;41.30;27.30;;;;;;;;;;5038110;28;20025;-83
2021/12/17 01:18:59;;;;;;;69.38;46.35;;;;;;;;;;5038729;28;20025;-83
2021/12/17 01:35:28;;;;;;;37.67;20.83;;;;;;;;;;5055495;28;20044;-83
2021/12/17 01:43:09;;;;;;;25.17;17.00;;;;;;;;;;5055194;28;20040;-83
2021/12/17 01:45:38;;;;;;;46.58;30.30;;;;;;;;;;5037728;28;20036;-82
2021/12/17 01:48:07;;;;;;;36.85;22.30;;;;;;;;;;5037619;28;20031;-82
2021/12/17 01:56:28;;;;;;;30.75;18.48;;;;;;;;;;5033066;28;20974;-82
2021/12/17 02:01:34;;;;;;;23.70;16.38;;;;;;;;;;5055709;28;20043;-82
2021/12/17 02:04:02;;;;;;;18.35;12.25;;;;;;;;;;5036842;28;20029;-83
2021/12/17 02:06:29;;;;;;;16.00;9.30;;;;;;;;;;5055748;28;20021;-81
2021/12/17 02:08:57;;;;;;;16.25;11.25;;;;;;;;;;5054953;28;20480;-82
2021/12/17 02:19:58;;;;;;;14.55;9.32;;;;;;;;;;5055454;28;20051;-83
2021/12/17 02:23:07;;;;;;;11.43;8.32;;;;;;;;;;5054236;28;20037;-81
2021/12/17 02:31:01;;;;;;;25.80;16.00;;;;;;;;;;5055039;28;20027;-81
2021/12/17 02:33:26;;;;;;;26.90;17.77;;;;;;;;;;5055304;28;20036;-82
2021/12/17 02:35:51;;;;;;;27.25;16.90;;;;;;;;;;5037896;28;20033;-81
2021/12/17 02:38:17;;;;;;;21.08;13.48;;;;;;;;;;5036708;28;20036;-81
2021/12/17 02:46:10;;;;;;;22.00;15.95;;;;;;;;;;5054935;28;20098;-81
2021/12/17 02:48:36;;;;;;;18.77;14.85;;;;;;;;;;5037276;28;20422;-81
2021/12/17 02:51:02;;;;;;;18.63;13.45;;;;;;;;;;5055435;28;20024;-81
2021/12/17 02:53:28;;;;;;;26.77;15.90;;;;;;;;;;5036906;28;20078;-81
2021/12/17 02:55:56;;;;;;;29.13;16.77;;;;;;;;;;5036622;28;20032;-81
2021/12/17 02:58:23;;;;;;;15.45;10.32;;;;;;;;;;5036106;28;20155;-81
2021/12/17 03:00:48;;;;;;;9.82;7.35;;;;;;;;;;5055539;28;20074;-81
2021/12/17 03:03:14;;;;;;;7.28;6.03;;;;;;;;;;5036864;28;20020;-80
2021/12/17 03:05:41;;;;;;;7.28;5.90;;;;;;;;;;5036306;28;20108;-80
2021/12/17 03:08:11;;;;;;;6.38;5.35;;;;;;;;;;5036624;28;20033;-81
2021/12/17 03:10:37;;;;;;;24.23;16.00;;;;;;;;;;5036797;28;20070;-81
2021/12/17 03:13:04;;;;;;;25.10;15.95;;;;;;;;;;5054597;28;20029;-80
2021/12/17 03:15:38;;;;;;;22.40;14.35;;;;;;;;;;5036655;28;20472;-81
2021/12/17 03:23:39;;;;;;;35.78;22.75;;;;;;;;;;5058389;28;20077;-80
2021/12/17 03:26:06;;;;;;;48.40;25.77;;;;;;;;;;5058287;28;20024;-82
2021/12/17 03:28:32;;;;;;;39.78;24.30;;;;;;;;;;5040585;28;20421;-81
2021/12/17 03:30:58;;;;;;;39.17;21.60;;;;;;;;;;5040343;28;20024;-81
2021/12/17 03:33:24;;;;;;;22.27;14.07;;;;;;;;;;5058275;28;20108;-82
2021/12/17 03:35:50;;;;;;;10.95;6.68;;;;;;;;;;5039965;28;20122;-82
2021/12/17 03:38:15;;;;;;;12.70;8.70;;;;;;;;;;5058768;28;20021;-81
2021/12/17 03:40:42;;;;;;;12.10;7.72;;;;;;;;;;5039688;28;20036;-81
2021/12/17 03:43:12;;;;;;;9.00;6.20;;;;;;;;;;5040306;28;20032;-81
2021/12/17 03:45:38;;;;;;;6.97;5.15;;;;;;;;;;5058297;28;20063;-80
2021/12/17 03:48:04;;;;;;;6.53;4.78;;;;;;;;;;5057405;28;20029;-81
2021/12/17 03:50:33;;;;;;;6.05;5.05;;;;;;;;;;5039755;28;20029;-80
2021/12/17 03:52:59;;;;;;;17.13;9.70;;;;;;;;;;5040006;28;20414;-81
2021/12/17 03:55:24;;;;;;;33.30;17.98;;;;;;;;;;5057819;28;20040;-81
2021/12/17 03:57:49;;;;;;;29.40;16.08;;;;;;;;;;5039332;28;20052;-81
2021/12/17 04:00:15;;;;;;;34.22;21.00;;;;;;;;;;5057771;28;20028;-81
2021/12/17 04:02:40;;;;;;;29.65;19.80;;;;;;;;;;5039389;28;20021;-81
2021/12/17 04:05:06;;;;;;;49.40;28.30;;;;;;;;;;5039935;28;20040;-80
2021/12/17 04:07:31;;;;;;;31.35;18.30;;;;;;;;;;5040105;28;20028;-81
2021/12/17 04:09:57;;;;;;;32.30;20.00;;;;;;;;;;5057144;28;20039;-81
2021/12/17 04:12:34;;;;;;;27.55;17.13;;;;;;;;;;5057543;28;20076;-80
2021/12/17 04:15:01;;;;;;;19.80;12.13;;;;;;;;;;5057400;28;20048;-81
2021/12/17 04:17:26;;;;;;;14.38;9.75;;;;;;;;;;5057696;28;20781;-81
2021/12/17 04:19:51;;;;;;;20.13;13.48;;;;;;;;;;5039171;28;20485;-80
2021/12/17 04:22:17;;;;;;;22.25;14.32;;;;;;;;;;5057644;28;20024;-81
2021/12/17 04:24:43;;;;;;;15.70;11.38;;;;;;;;;;5039243;28;20027;-80
2021/12/17 04:27:08;;;;;;;13.57;9.55;;;;;;;;;;5039275;28;20406;-80
2021/12/17 04:29:40;;;;;;;12.77;9.90;;;;;;;;;;5055459;28;20375;-80
2021/12/17 04:32:06;;;;;;;18.17;12.57;;;;;;;;;;5039318;28;20028;-80
2021/12/17 04:34:31;;;;;;;17.70;12.38;;;;;;;;;;5058064;28;20041;-81
2021/12/17 04:36:57;;;;;;;21.23;14.95;;;;;;;;;;5057265;28;20035;-80
2021/12/17 04:39:23;;;;;;;42.08;26.23;;;;;;;;;;5038917;28;20056;-81
2021/12/17 04:44:23;;;;;;;44.65;25.48;;;;;;;;;;5056612;28;20028;-80
2021/12/17 04:57:39;;;;;;;35.40;20.63;;;;;;;;;;5056623;28;20074;-80
2021/12/17 05:00:15;;;;;;;22.20;14.30;;;;;;;;;;5057146;28;20069;-80
2021/12/17 05:02:44;;;;;;;23.73;15.70;;;;;;;;;;5038578;28;20048;-80
2021/12/17 05:05:11;;;;;;;25.92;17.35;;;;;;;;;;5056477;28;20070;-80
2021/12/17 05:07:41;;;;;;;35.20;22.17;;;;;;;;;;5038553;28;20024;-80
2021/12/17 05:18:30;;;;;;;42.75;28.35;;;;;;;;;;5055929;28;20085;-79
2021/12/17 05:21:04;;;;;;;62.65;33.40;;;;;;;;;;5038320;28;20119;-79
2021/12/17 05:23:33;;;;;;;144.20;77.38;;;;;;;;;;5038428;28;20539;-79
2021/12/17 05:25:59;;;;;;;450.67;246.17;;;;;;;;;;5055659;28;20031;-80
2021/12/17 05:28:25;;;;;;;164.45;86.75;;;;;;;;;;5035471;28;20249;-80
2021/12/17 05:30:51;;;;;;;153.77;86.43;;;;;;;;;;5018086;28;20087;-79
2021/12/17 05:33:17;;;;;;;80.30;43.72;;;;;;;;;;5036205;28;20025;-79
2021/12/17 05:35:43;;;;;;;51.33;30.48;;;;;;;;;;5035740;28;20045;-79
2021/12/17 05:38:09;;;;;;;30.80;18.35;;;;;;;;;;5036443;28;20025;-79
2021/12/17 05:40:34;;;;;;;54.13;34.75;;;;;;;;;;5034270;28;20388;-80
2021/12/17 05:43:02;;;;;;;46.28;29.40;;;;;;;;;;5035399;28;20036;-80
2021/12/17 05:48:08;;;;;;;37.80;26.45;;;;;;;;;;5035434;28;20467;-80
2021/12/17 05:50:35;;;;;;;42.13;28.98;;;;;;;;;;5017952;28;20024;-79
2021/12/17 05:53:00;;;;;;;28.67;17.20;;;;;;;;;;5035675;28;20024;-81
2021/12/17 05:55:26;;;;;;;35.85;21.30;;;;;;;;;;5035425;28;20082;-80
2021/12/17 05:57:52;;;;;;;23.48;14.50;;;;;;;;;;5021978;28;20568;-80
2021/12/17 06:00:18;;;;;;;28.75;17.02;;;;;;;;;;5036445;28;20028;-79
2021/12/17 06:02:44;;;;;;;21.20;14.07;;;;;;;;;;5055287;28;20032;-79
2021/12/17 06:05:09;;;;;;;19.27;12.70;;;;;;;;;;5055407;28;20024;-79
2021/12/17 06:07:35;;;;;;;23.05;14.60;;;;;;;;;;5053173;28;20121;-81
2021/12/17 06:10:03;;;;;;;27.38;16.80;;;;;;;;;;5056088;28;20082;-78
2021/12/17 06:12:29;;;;;;;23.50;12.95;;;;;;;;;;5054749;28;20029;-79
2021/12/17 06:14:54;;;;;;;14.65;9.43;;;;;;;;;;5054743;28;20478;-79
2021/12/17 06:17:19;;;;;;;23.40;13.88;;;;;;;;;;5037656;28;20020;-79
2021/12/17 06:19:45;;;;;;;22.92;13.05;;;;;;;;;;5055320;28;20028;-77
2021/12/17 06:22:11;;;;;;;22.15;15.02;;;;;;;;;;5036641;28;20383;-78
2021/12/17 06:24:36;;;;;;;64.88;40.85;;;;;;;;;;5036666;28;20031;-78
2021/12/17 06:27:02;;;;;;;34.78;25.30;;;;;;;;;;5036897;28;20074;-79
2021/12/17 06:29:27;;;;;;;38.13;27.90;;;;;;;;;;5037053;28;20082;-78
2021/12/17 06:31:52;;;;;;;19.17;13.95;;;;;;;;;;5054582;28;20021;-80
2021/12/17 06:34:18;;;;;;;13.18;8.10;;;;;;;;;;5055121;28;20043;-79
2021/12/17 06:36:43;;;;;;;16.00;9.77;;;;;;;;;;5054660;28;20025;-78
2021/12/17 06:39:08;;;;;;;14.45;8.57;;;;;;;;;;5036672;28;20517;-78
2021/12/17 06:41:35;;;;;;;36.60;18.88;;;;;;;;;;5036780;28;20541;-78
2021/12/17 06:44:01;;;;;;;26.35;15.60;;;;;;;;;;5054448;28;20027;-78
2021/12/17 06:47:12;;;;;;;26.83;15.93;;;;;;;;;;5036649;28;20028;-78
2021/12/17 06:59:52;;;;;;;22.75;13.00;;;;;;;;;;5054758;28;20086;-79
2021/12/17 07:10:29;;;;;;;34.22;24.17;;;;;;;;;;5043005;28;20043;-79
2021/12/17 07:21:17;;;;;;;41.97;26.77;;;;;;;;;;5044965;28;20031;-78
2021/12/17 07:34:20;;;;;;;43.20;27.85;;;;;;;;;;5044015;28;20024;-80
2021/12/17 07:38:35;;;;;;;18.83;13.18;;;;;;;;;;5028546;28;20028;-77
2021/12/17 07:39:30;;;;;;;39.25;21.58;;;;;;;;;;5039374;28;20046;-78
2021/12/17 07:41:56;;;;;;;22.80;15.43;;;;;;;;;;5027549;28;20029;-77
2021/12/17 07:44:21;;;;;;;22.67;15.60;;;;;;;;;;5025629;28;20051;-77
2021/12/17 07:46:46;;;;;;;16.85;10.10;;;;;;;;;;5044070;28;20028;-77
2021/12/17 07:49:12;;;;;;;6.40;4.10;;;;;;;;;;5026863;28;20028;-77
2021/12/17 07:51:37;;;;;;;11.27;8.30;;;;;;;;;;5026910;28;20066;-77
2021/12/17 07:54:03;;;;;;;29.15;19.23;;;;;;;;;;5043664;28;20036;-78
2021/12/17 07:56:37;;;;;;;25.67;16.73;;;;;;;;;;5025807;28;20483;-79
2021/12/17 07:59:03;;;;;;;31.15;20.98;;;;;;;;;;5040025;28;20040;-80
2021/12/17 08:01:28;;;;;;;36.75;23.10;;;;;;;;;;5053395;28;20039;-80
2021/12/17 08:03:54;;;;;;;14.85;10.40;;;;;;;;;;5056010;28;20031;-79
2021/12/17 08:06:19;;;;;;;14.38;10.75;;;;;;;;;;5047548;28;20028;-80
2021/12/17 08:08:44;;;;;;;22.77;16.00;;;;;;;;;;5055125;28;20016;-81
2021/12/17 08:11:10;;;;;;;34.15;24.30;;;;;;;;;;5056291;28;20020;-80
2021/12/17 08:13:36;;;;;;;40.45;28.63;;;;;;;;;;5057846;28;20096;-78
2021/12/17 08:24:32;;;;;;;18.48;12.35;;;;;;;;;;5057251;28;20533;-80
2021/12/17 08:31:29;;;;;;;19.85;16.40;;;;;;;;;;5057555;28;20060;-84
2021/12/17 08:33:55;;;;;;;16.13;11.57;;;;;;;;;;5055496;28;20463;-83
2021/12/17 08:36:20;;;;;;;33.53;21.67;;;;;;;;;;5057184;28;20032;-83
2021/12/17 08:38:49;;;;;;;23.30;15.13;;;;;;;;;;5057532;28;20559;-82
2021/12/17 08:41:14;;;;;;;20.20;13.85;;;;;;;;;;5038796;28;20077;-82
2021/12/17 08:43:40;;;;;;;7.35;5.72;;;;;;;;;;5052806;28;20024;-82
2021/12/17 08:46:06;;;;;;;17.45;11.75;;;;;;;;;;5055494;28;20085;-81
2021/12/17 08:48:31;;;;;;;11.18;7.15;;;;;;;;;;5072079;28;20063;-82
2021/12/17 08:50:57;;;;;;;11.52;7.20;;;;;;;;;;5057150;28;20020;-81
2021/12/17 08:53:22;;;;;;;14.07;9.90;;;;;;;;;;5056464;28;20032;-84
2021/12/17 08:55:48;;;;;;;8.32;7.28;;;;;;;;;;5054945;28;20032;-82
2021/12/17 08:58:14;;;;;;;14.85;10.10;;;;;;;;;;5056303;28;20051;-81
2021/12/17 09:00:41;;;;;;;70.40;40.35;;;;;;;;;;5056797;28;20029;-84
2021/12/17 09:03:09;;;;;;;41.50;23.30;;;;;;;;;;5052802;28;20031;-82
2021/12/17 09:05:37;;;;;;;21.85;13.13;;;;;;;;;;5056620;28;20403;-81
2021/12/17 09:08:03;;;;;;;23.70;13.95;;;;;;;;;;5054926;28;20103;-81
2021/12/17 09:10:28;;;;;;;13.82;9.90;;;;;;;;;;5055952;28;20020;-82
2021/12/17 09:12:54;;;;;;;14.88;8.80;;;;;;;;;;5055076;28;20029;-82
2021/12/17 09:15:19;;;;;;;23.58;14.98;;;;;;;;;;5047894;28;20060;-83
2021/12/17 09:17:44;;;;;;;8.57;5.50;;;;;;;;;;5055627;28;20054;-81
2021/12/17 09:20:10;;;;;;;12.05;8.20;;;;;;;;;;5038175;28;20483;-81
2021/12/17 09:22:35;;;;;;;10.25;5.80;;;;;;;;;;5034560;28;20017;-82
2021/12/17 09:25:01;;;;;;;18.75;12.02;;;;;;;;;;5034512;28;20033;-80
2021/12/17 09:27:26;;;;;;;9.45;6.20;;;;;;;;;;5051231;28;20032;-82
2021/12/17 09:29:52;;;;;;;9.98;6.50;;;;;;;;;;5040670;28;20036;-85
2021/12/17 09:32:17;;;;;;;7.22;5.38;;;;;;;;;;5055880;28;21115;-82
2021/12/17 09:34:42;;;;;;;7.65;4.93;;;;;;;;;;5038178;28;20035;-84
2021/12/17 09:37:08;;;;;;;6.97;4.93;;;;;;;;;;5039203;28;20597;-85
2021/12/17 09:39:33;;;;;;;5.10;3.72;;;;;;;;;;5038065;28;20511;-82
2021/12/17 09:41:58;;;;;;;9.52;6.50;;;;;;;;;;5039752;28;20047;-82
2021/12/17 09:44:24;;;;;;;7.68;5.85;;;;;;;;;;5055708;28;20482;-81
2021/12/17 09:46:49;;;;;;;17.13;11.35;;;;;;;;;;5055776;28;20028;-82
2021/12/17 09:49:16;;;;;;;7.82;4.85;;;;;;;;;;5055015;28;20375;-82
2021/12/17 09:51:42;;;;;;;10.85;6.90;;;;;;;;;;5043660;28;20028;-85
2021/12/17 09:54:08;;;;;;;21.58;13.15;;;;;;;;;;5054247;28;20024;-81
2021/12/17 09:56:33;;;;;;;15.27;10.20;;;;;;;;;;5055323;28;20041;-84
2021/12/17 09:58:58;;;;;;;25.73;13.75;;;;;;;;;;5069969;28;20048;-81
2021/12/17 10:01:24;;;;;;;8.32;5.38;;;;;;;;;;5074702;28;20049;-85
2021/12/17 10:04:08;;;;;;;15.80;9.23;;;;;;;;;;5057643;28;20356;-81
2021/12/17 10:06:34;;;;;;;22.95;11.80;;;;;;;;;;5075423;28;20020;-84
2021/12/17 10:08:59;;;;;;;27.08;13.80;;;;;;;;;;5075995;28;20023;-83
2021/12/17 10:11:25;;;;;;;73.55;38.83;;;;;;;;;;5057448;28;20567;-82
2021/12/17 10:13:50;;;;;;;30.15;17.35;;;;;;;;;;5037385;28;20861;-84
2021/12/17 10:16:18;;;;;;;28.45;15.32;;;;;;;;;;5036986;28;20040;-82
2021/12/17 10:18:48;;;;;;;30.92;18.10;;;;;;;;;;5030921;28;20575;-84
2021/12/17 10:21:16;;;;;;;32.22;17.45;;;;;;;;;;5033221;28;20032;-81
2021/12/17 10:23:43;;;;;;;19.58;11.52;;;;;;;;;;5034169;28;20052;-80
2021/12/17 10:26:12;;;;;;;16.75;9.20;;;;;;;;;;5034761;28;20028;-83
2021/12/17 10:28:38;;;;;;;11.85;8.05;;;;;;;;;;5052655;28;20024;-81
2021/12/17 10:31:09;;;;;;;8.60;6.28;;;;;;;;;;5053916;28;20033;-82
2021/12/17 10:33:34;;;;;;;11.52;6.93;;;;;;;;;;5053577;28;20021;-82
2021/12/17 10:36:03;;;;;;;14.30;7.40;;;;;;;;;;5053866;28;20069;-83
2021/12/17 10:38:28;;;;;;;14.25;9.02;;;;;;;;;;5053450;28;20802;-81
2021/12/17 10:41:01;;;;;;;15.32;9.88;;;;;;;;;;5054610;28;20028;-81
2021/12/17 10:43:32;;;;;;;11.35;7.57;;;;;;;;;;5055040;28;20481;-81
2021/12/17 10:46:07;;;;;;;12.10;8.20;;;;;;;;;;5053496;28;20174;-81
2021/12/17 10:48:50;;;;;;;14.57;10.32;;;;;;;;;;5053365;28;20511;-83
2021/12/17 10:54:02;;;;;;;9.00;6.47;;;;;;;;;;5054838;28;20028;-83
2021/12/17 10:56:30;;;;;;;12.57;8.30;;;;;;;;;;5053685;28;20032;-83
2021/12/17 10:59:03;;;;;;;10.27;7.68;;;;;;;;;;5055223;28;20055;-81
2021/12/17 11:01:31;;;;;;;8.02;6.05;;;;;;;;;;5053221;28;20467;-82
2021/12/17 11:04:04;;;;;;;10.07;7.05;;;;;;;;;;5051998;28;20050;-83
2021/12/17 11:06:49;;;;;;;7.07;5.88;;;;;;;;;;5053489;28;20119;-81
2021/12/17 11:09:35;;;;;;;11.70;7.57;;;;;;;;;;5053183;28;20052;-83
2021/12/17 11:12:21;;;;;;;11.00;7.30;;;;;;;;;;5053454;28;20029;-82
2021/12/17 11:14:46;;;;;;;8.80;5.82;;;;;;;;;;5054197;28;20479;-83
2021/12/17 11:17:13;;;;;;;7.95;5.65;;;;;;;;;;5053161;28;20028;-81
2021/12/17 11:19:39;;;;;;;11.23;8.38;;;;;;;;;;5053817;28;20345;-82
2021/12/17 11:22:04;;;;;;;12.65;8.98;;;;;;;;;;5053457;28;20062;-83
2021/12/17 11:24:32;;;;;;;13.00;8.50;;;;;;;;;;5053609;28;20048;-81
2021/12/17 11:26:58;;;;;;;8.02;6.22;;;;;;;;;;5053271;28;20368;-80
2021/12/17 11:29:24;;;;;;;13.35;7.25;;;;;;;;;;5015491;28;20044;-79
2021/12/17 11:31:49;;;;;;;6.32;4.55;;;;;;;;;;5012830;28;20028;-81
2021/12/17 11:34:17;;;;;;;10.27;6.75;;;;;;;;;;5013095;28;20025;-83
2021/12/17 11:36:42;;;;;;;8.70;6.43;;;;;;;;;;5012939;28;20384;-80
2021/12/17 11:39:08;;;;;;;6.93;5.10;;;;;;;;;;5017206;28;20026;-80
2021/12/17 11:41:41;;;;;;;7.13;5.97;;;;;;;;;;5019107;28;20100;-80
2021/12/17 11:44:08;;;;;;;8.43;6.80;;;;;;;;;;5016866;28;20027;-79
2021/12/17 11:46:33;;;;;;;15.82;11.50;;;;;;;;;;5016884;28;20120;-81
2021/12/17 11:49:04;;;;;;;14.00;10.90;;;;;;;;;;5016909;28;20048;-79
2021/12/17 11:51:30;;;;;;;13.07;10.35;;;;;;;;;;5016847;28;20358;-82
2021/12/17 11:54:03;;;;;;;12.35;10.20;;;;;;;;;;5018567;28;20028;-81
2021/12/17 11:56:33;;;;;;;13.90;10.70;;;;;;;;;;5018892;28;20384;-81
2021/12/17 11:58:59;;;;;;;11.73;8.65;;;;;;;;;;5050186;28;20136;-81
2021/12/17 12:01:43;;;;;;;18.55;11.48;;;;;;;;;;5040778;28;20120;-81
2021/12/17 12:04:21;;;;;;;20.70;13.23;;;;;;;;;;5040047;28;20111;-81
2021/12/17 12:07:00;;;;;;;19.52;11.27;;;;;;;;;;5057564;28;20056;-82
2021/12/17 12:09:44;;;;;;;17.48;12.10;;;;;;;;;;5041169;28;20055;-82
2021/12/17 12:12:10;;;;;;;25.30;15.07;;;;;;;;;;5058249;28;20095;-81
2021/12/17 12:14:35;;;;;;;21.55;13.48;;;;;;;;;;5040318;28;20206;-81
2021/12/17 12:17:01;;;;;;;30.33;20.25;;;;;;;;;;5057222;28;20043;-82
2021/12/17 12:19:46;;;;;;;25.45;16.45;;;;;;;;;;5057506;28;20099;-83
2021/12/17 12:22:12;;;;;;;29.60;21.17;;;;;;;;;;5036397;28;20044;-81
2021/12/17 12:24:38;;;;;;;27.00;17.77;;;;;;;;;;5044907;28;20399;-78
2021/12/17 12:27:03;;;;;;;20.23;13.68;;;;;;;;;;5056876;28;20017;-78
2021/12/17 12:29:29;;;;;;;27.38;17.13;;;;;;;;;;5057608;28;20021;-77
2021/12/17 12:31:54;;;;;;;23.38;16.42;;;;;;;;;;5039548;28;20016;-78
2021/12/17 12:34:22;;;;;;;36.95;24.98;;;;;;;;;;5057039;28;20025;-80
2021/12/17 12:36:52;;;;;;;18.27;13.85;;;;;;;;;;5039138;28;20567;-78
2021/12/17 12:39:20;;;;;;;18.42;13.85;;;;;;;;;;5039089;28;20017;-78
2021/12/17 12:41:45;;;;;;;17.60;13.85;;;;;;;;;;5057932;28;20114;-78
2021/12/17 12:44:11;;;;;;;45.38;33.13;;;;;;;;;;5039068;28;20479;-78
2021/12/17 12:46:53;;;;;;;70.05;39.85;;;;;;;;;;5038640;28;20085;-79
2021/12/17 12:49:37;;;;;;;47.05;26.45;;;;;;;;;;5055928;28;20062;-79
2021/12/17 12:52:23;;;;;;;32.13;21.27;;;;;;;;;;5056246;28;20056;-79
2021/12/17 12:54:49;;;;;;;40.10;25.20;;;;;;;;;;5037192;28;20094;-79
2021/12/17 12:57:22;;;;;;;52.38;32.60;;;;;;;;;;5038533;28;20024;-78
2021/12/17 12:59:50;;;;;;;37.45;23.00;;;;;;;;;;5056965;28;20020;-78
2021/12/17 13:02:15;;;;;;;37.35;22.23;;;;;;;;;;5056338;28;20511;-78
2021/12/17 13:04:41;;;;;;;25.27;16.65;;;;;;;;;;5056262;28;20104;-78
2021/12/17 13:07:06;;;;;;;42.50;22.75;;;;;;;;;;5038130;28;21055;-79
2021/12/17 13:09:31;;;;;;;55.75;28.95;;;;;;;;;;5057539;28;20039;-78
2021/12/17 13:11:57;;;;;;;50.22;27.85;;;;;;;;;;5057421;28;20084;-82
2021/12/17 13:14:25;;;;;;;56.08;28.25;;;;;;;;;;5038147;28;20060;-81
2021/12/17 13:17:39;;;;;;;61.00;33.45;;;;;;;;;;5057845;28;20103;-82
2021/12/17 13:22:54;;;;;;;62.50;30.55;;;;;;;;;;5055932;28;20120;-79
2021/12/17 13:25:23;;;;;;;57.78;29.95;;;;;;;;;;5038472;28;20038;-80
2021/12/17 13:27:53;;;;;;;48.42;25.23;;;;;;;;;;5056776;28;20065;-79
2021/12/17 13:30:25;;;;;;;44.08;22.30;;;;;;;;;;5038238;28;20025;-80
2021/12/17 13:32:51;;;;;;;38.85;20.63;;;;;;;;;;5056484;28;20028;-80
2021/12/17 13:35:17;;;;;;;28.80;16.77;;;;;;;;;;5055953;28;20032;-80
2021/12/17 13:37:43;;;;;;;51.92;27.45;;;;;;;;;;5038475;28;20031;-79
2021/12/17 13:40:10;;;;;;;41.88;22.23;;;;;;;;;;5055799;28;20467;-81
2021/12/17 13:42:37;;;;;;;41.60;24.85;;;;;;;;;;5037417;28;20024;-80
2021/12/17 13:45:10;;;;;;;66.95;37.67;;;;;;;;;;5038331;28;20413;-78
2021/12/17 13:47:42;;;;;;;58.53;30.13;;;;;;;;;;5038223;28;20028;-80
2021/12/17 13:50:13;;;;;;;51.15;28.73;;;;;;;;;;5055584;28;20016;-79
2021/12/17 13:52:48;;;;;;;63.05;34.78;;;;;;;;;;5056170;28;20024;-80
2021/12/17 13:55:15;;;;;;;59.47;31.52;;;;;;;;;;5055783;28;20028;-79
2021/12/17 13:57:41;;;;;;;71.93;36.92;;;;;;;;;;5055325;28;20056;-78
2021/12/17 14:00:15;;;;;;;99.72;47.15;;;;;;;;;;5056066;28;20502;-78
2021/12/17 14:02:41;;;;;;;83.60;40.95;;;;;;;;;;5037444;28;20028;-79
2021/12/17 14:05:07;;;;;;;62.85;31.05;;;;;;;;;;5055128;28;20028;-78
2021/12/17 14:07:34;;;;;;;31.75;17.10;;;;;;;;;;5055639;28;20495;-81
2021/12/17 14:10:01;;;;;;;29.92;19.48;;;;;;;;;;5037196;28;20032;-80
2021/12/17 14:12:30;;;;;;;10.57;7.28;;;;;;;;;;5055938;28;20029;-78
2021/12/17 14:15:01;;;;;;;41.83;25.90;;;;;;;;;;5037343;28;20033;-79
2021/12/17 14:17:33;;;;;;;27.88;19.08;;;;;;;;;;5055862;28;20020;-79
2021/12/17 14:20:11;;;;;;;25.95;15.68;;;;;;;;;;5036375;28;20028;-79
2021/12/17 14:22:38;;;;;;;19.35;13.45;;;;;;;;;;5037662;28;20594;-79
2021/12/17 14:25:23;;;;;;;19.08;12.55;;;;;;;;;;5054798;28;20115;-79
2021/12/17 14:27:49;;;;;;;18.58;11.10;;;;;;;;;;5037575;28;20035;-79
2021/12/17 14:30:15;;;;;;;27.90;17.13;;;;;;;;;;5037297;28;20024;-79
2021/12/17 14:32:45;;;;;;;18.42;13.30;;;;;;;;;;5055789;28;20091;-79
2021/12/17 14:35:10;;;;;;;;;;;;;;;;;;5037872;28;20029;-80
2021/12/17 14:37:54;;;;;;;23.90;14.40;;;;;;;;;;5048883;28;19920;-79
2021/12/17 14:40:50;;;;;;;28.80;17.00;;;;;;;;;;5013707;28;20025;-80
2021/12/17 14:43:24;;;;;;;40.70;23.45;;;;;;;;;;5014182;28;20029;-81
2021/12/17 14:45:56;;;;;;;27.33;17.30;;;;;;;;;;5015474;28;20025;-80
2021/12/17 14:48:30;;;;;;;166.50;73.13;;;;;;;;;;4998030;28;20065;-79
2021/12/17 15:02:03;;;;;;;19.58;13.65;;;;;;;;;;5055040;28;20021;-80
2021/12/17 15:04:28;;;;;;;32.55;20.25;;;;;;;;;;5054437;28;20039;-79
2021/12/17 15:06:54;;;;;;;31.85;19.45;;;;;;;;;;5036830;28;20020;-79
2021/12/17 15:09:20;;;;;;;41.10;22.77;;;;;;;;;;5036785;28;20028;-78
2021/12/17 15:11:45;;;;;;;46.50;26.58;;;;;;;;;;5036720;28;20028;-80
2021/12/17 15:14:10;;;;;;;51.10;30.75;;;;;;;;;;5039662;28;20069;-79
2021/12/17 15:16:36;;;;;;;41.60;25.25;;;;;;;;;;5059702;28;20029;-79
2021/12/17 15:19:01;;;;;;;38.78;25.77;;;;;;;;;;5040445;28;20031;-79
2021/12/17 15:21:26;;;;;;;27.77;19.00;;;;;;;;;;5040548;28;20025;-78
2021/12/17 15:23:52;;;;;;;43.65;26.98;;;;;;;;;;5040510;28;20115;-79
2021/12/17 15:26:17;;;;;;;48.50;30.40;;;;;;;;;;5058649;28;20028;-79
2021/12/17 15:28:42;;;;;;;84.07;47.53;;;;;;;;;;5040483;28;20058;-78
2021/12/17 15:31:08;;;;;;;164.63;79.45;;;;;;;;;;5040596;28;20047;-80
2021/12/17 15:33:35;;;;;;;59.85;31.92;;;;;;;;;;5058542;28;20020;-79
2021/12/17 15:36:01;;;;;;;28.88;18.30;;;;;;;;;;5039881;28;20491;-79
2021/12/17 15:38:26;;;;;;;20.90;14.77;;;;;;;;;;5040190;28;20060;-78
2021/12/17 15:40:52;;;;;;;33.75;21.40;;;;;;;;;;5040431;28;20025;-79
2021/12/17 15:43:18;;;;;;;19.20;13.23;;;;;;;;;;5058005;28;20024;-80
2021/12/17 15:45:45;;;;;;;42.25;27.00;;;;;;;;;;5057705;28;20387;-78
2021/12/17 15:48:13;;;;;;;39.53;25.05;;;;;;;;;;5039699;28;20033;-78
2021/12/17 15:50:38;;;;;;;28.17;17.42;;;;;;;;;;5039745;28;20109;-78
2021/12/17 15:53:04;;;;;;;26.58;17.33;;;;;;;;;;5040048;28;20448;-78
2021/12/17 15:55:29;;;;;;;43.10;24.75;;;;;;;;;;5058497;28;20557;-80
2021/12/17 15:57:56;;;;;;;24.77;15.27;;;;;;;;;;5039957;28;20113;-80
2021/12/17 16:00:23;;;;;;;25.63;15.52;;;;;;;;;;5058005;28;20479;-79
2021/12/17 16:02:49;;;;;;;35.50;21.42;;;;;;;;;;5039266;28;20029;-79
2021/12/17 16:05:16;;;;;;;33.50;20.98;;;;;;;;;;5057620;28;20442;-78
2021/12/17 16:07:42;;;;;;;27.48;16.88;;;;;;;;;;5039554;28;20025;-80
2021/12/17 16:23:22;;;;;;;76.07;40.28;;;;;;;;;;5057549;28;20035;-77
2021/12/17 16:25:47;;;;;;;33.97;18.15;;;;;;;;;;5039155;28;20028;-78
2021/12/17 16:28:13;;;;;;;149.18;67.97;;;;;;;;;;5057639;28;20052;-78
2021/12/17 16:30:38;;;;;;;39.47;22.65;;;;;;;;;;5038625;28;20103;-78
2021/12/17 16:33:04;;;;;;;48.05;28.27;;;;;;;;;;5056782;28;20021;-79
2021/12/17 16:35:29;;;;;;;135.60;68.38;;;;;;;;;;5056730;28;20392;-78
2021/12/17 16:37:54;;;;;;;83.18;45.83;;;;;;;;;;5057347;28;20131;-78
2021/12/17 16:40:20;;;;;;;80.43;42.28;;;;;;;;;;5057648;28;20060;-78
2021/12/17 16:42:45;;;;;;;177.25;89.57;;;;;;;;;;5038648;28;20024;-78
2021/12/17 16:45:23;;;;;;;64.03;36.20;;;;;;;;;;5038530;28;20447;-76
2021/12/17 16:47:49;;;;;;;118.05;63.63;;;;;;;;;;5058123;28;20104;-77
2021/12/17 16:50:14;;;;;;;109.85;57.10;;;;;;;;;;5039846;28;20107;-77
2021/12/17 16:52:39;;;;;;;151.48;80.38;;;;;;;;;;5050757;28;20021;-77
2021/12/17 16:55:06;;;;;;;149.40;71.88;;;;;;;;;;5036261;28;20107;-82
2021/12/17 16:57:32;;;;;;;123.05;58.58;;;;;;;;;;5018433;28;20064;-82
2021/12/17 16:59:57;;;;;;;111.75;55.28;;;;;;;;;;5036706;28;20037;-80
2021/12/17 17:02:22;;;;;;;127.25;68.60;;;;;;;;;;5018501;28;20098;-79
2021/12/17 17:04:48;;;;;;;58.33;33.40;;;;;;;;;;5018626;28;20526;-79
2021/12/17 17:07:14;;;;;;;286.63;119.50;;;;;;;;;;5018503;28;20028;-80
2021/12/17 17:09:40;;;;;;;87.40;43.53;;;;;;;;;;5017075;28;20021;-79
2021/12/17 17:12:08;;;;;;;82.90;49.17;;;;;;;;;;5018281;28;20025;-79
2021/12/17 17:14:33;;;;;;;88.90;52.95;;;;;;;;;;5036267;28;20021;-80
2021/12/17 17:16:59;;;;;;;49.50;29.90;;;;;;;;;;5036158;28;20028;-79
2021/12/17 17:19:25;;;;;;;50.78;32.55;;;;;;;;;;5018584;28;20020;-79
2021/12/17 17:21:50;;;;;;;38.38;25.05;;;;;;;;;;5036669;28;20044;-80
2021/12/17 17:24:17;;;;;;;41.25;26.70;;;;;;;;;;5018077;28;20028;-80
2021/12/17 17:26:43;;;;;;;49.20;30.58;;;;;;;;;;5036404;28;20454;-80
2021/12/17 17:29:08;;;;;;;53.45;34.03;;;;;;;;;;5035907;28;20047;-81
2021/12/17 17:31:34;;;;;;;29.50;18.98;;;;;;;;;;5036643;28;20021;-80
2021/12/17 17:34:00;;;;;;;58.67;36.17;;;;;;;;;;5036222;28;20519;-78
2021/12/17 17:36:25;;;;;;;68.93;43.08;;;;;;;;;;5035483;28;20033;-79
2021/12/17 17:38:51;;;;;;;60.63;35.95;;;;;;;;;;5035920;28;20021;-79